Wetterdaten: Woche 22.08.16 - 28.08.16 (KW34)
Datum Zeit Temp. A. Temp. A. min Temp. A. max Feuchte A. Bod.Feucht 4 Luftdruck Regen Wind Richtung Sonnenschein ET Solar Taupunkt Windchill Windben Empfang
22.08.2016 00:00 13,0 C 13,0 C 13,2 C 88 % 0 cb 1025,9 hPa 0,0 l/m 0,0 km/h (0 Bft) N 0,00 h 0,000 mm 0 W/m 11,1 C 13,0 C 0,3 km/h (0 Bft) 99,63 %
22.08.2016 01:00 11,8 C 11,8 C 12,0 C 91 % 0 cb 1026,1 hPa 0,0 l/m 0,0 km/h (0 Bft) N 0,00 h 0,000 mm 0 W/m 10,3 C 11,8 C 0,0 km/h (0 Bft) 100,00 %
22.08.2016 02:00 11,3 C 11,3 C 11,3 C 94 % 0 cb 1026,4 hPa 0,0 l/m 0,0 km/h (0 Bft) N 0,00 h 0,000 mm 0 W/m 10,3 C 11,3 C 0,0 km/h (0 Bft) 99,93 %
22.08.2016 03:00 10,9 C 10,9 C 11,0 C 94 % 0 cb 1026,6 hPa 0,0 l/m 0,0 km/h (0 Bft) N 0,00 h 0,000 mm 0 W/m 10,0 C 10,9 C 0,0 km/h (0 Bft) 99,78 %
22.08.2016 04:00 10,6 C 10,5 C 10,6 C 95 % 0 cb 1026,8 hPa 0,0 l/m 0,0 km/h (0 Bft) N 0,00 h 0,000 mm 0 W/m 9,8 C 10,6 C 0,0 km/h (0 Bft) 99,71 %
22.08.2016 05:00 10,1 C 10,1 C 10,1 C 96 % 0 cb 1026,9 hPa 0,0 l/m 0,0 km/h (0 Bft) N 0,00 h 0,000 mm 0 W/m 9,4 C 10,1 C 0,0 km/h (0 Bft) 99,93 %
22.08.2016 06:00 9,6 C 9,6 C 9,7 C 96 % 0 cb 1027,1 hPa 0,0 l/m 0,0 km/h (0 Bft) N 0,00 h 0,000 mm 9 W/m 9,0 C 9,6 C 0,0 km/h (0 Bft) 99,93 %
22.08.2016 07:00 9,8 C 9,6 C 9,8 C 97 % 0 cb 1027,4 hPa 0,0 l/m 0,0 km/h (0 Bft) N 0,00 h 0,000 mm 40 W/m 9,2 C 9,8 C 0,0 km/h (0 Bft) 98,98 %
22.08.2016 08:00 11,1 C 10,9 C 11,1 C 97 % 0 cb 1028,1 hPa 0,0 l/m 0,0 km/h (0 Bft) N 0,00 h 0,025 mm 50 W/m 10,7 C 11,1 C 0,0 km/h (0 Bft) 100,00 %
22.08.2016 09:00 12,0 C 11,9 C 12,0 C 97 % 0 cb 1028,6 hPa 0,0 l/m 0,8 km/h (0 Bft) W-SW 0,00 h 0,025 mm 106 W/m 11,5 C 12,0 C 2,7 km/h (1 Bft) 99,93 %
22.08.2016 10:00 12,8 C 12,7 C 12,8 C 97 % 0 cb 1029,0 hPa 0,2 l/m 2,7 km/h (1 Bft) S-SW 0,17 h 0,051 mm 114 W/m 12,3 C 12,8 C 8,8 km/h (2 Bft) 99,71 %
22.08.2016 11:00 13,9 C 13,7 C 13,9 C 96 % 0 cb 1029,2 hPa 0,2 l/m 2,7 km/h (1 Bft) SW 1,00 h 0,051 mm 230 W/m 13,3 C 13,9 C 8,8 km/h (2 Bft) 100,00 %
22.08.2016 12:00 14,4 C 14,3 C 14,4 C 95 % 0 cb 1029,4 hPa 0,0 l/m 3,5 km/h (1 Bft) S-SW 0,00 h 0,076 mm 119 W/m 13,5 C 14,4 C 11,8 km/h (2 Bft) 100,00 %
22.08.2016 13:00 15,7 C 15,3 C 15,7 C 93 % 0 cb 1029,3 hPa 0,0 l/m 2,4 km/h (1 Bft) S-SW 0,67 h 0,051 mm 276 W/m 14,5 C 15,7 C 9,9 km/h (2 Bft) 99,93 %
22.08.2016 14:00 18,1 C 17,7 C 18,1 C 85 % 0 cb 1029,1 hPa 0,0 l/m 4,5 km/h (1 Bft) S-SW 1,00 h 0,127 mm 595 W/m 15,5 C 18,1 C 13,2 km/h (3 Bft) 100,00 %
22.08.2016 15:00 20,4 C 20,1 C 20,4 C 73 % 0 cb 1028,9 hPa 0,0 l/m 5,6 km/h (1 Bft) S 1,00 h 0,229 mm 531 W/m 15,4 C 20,4 C 16,6 km/h (3 Bft) 100,00 %
22.08.2016 16:00 21,7 C 21,5 C 21,8 C 67 % 0 cb 1028,7 hPa 0,0 l/m 5,6 km/h (1 Bft) W-SW 1,00 h 0,305 mm 683 W/m 15,2 C 21,7 C 17,2 km/h (3 Bft) 99,93 %
22.08.2016 17:00 22,4 C 22,1 C 22,4 C 63 % 0 cb 1028,3 hPa 0,2 l/m 5,1 km/h (1 Bft) W 1,00 h 0,254 mm 509 W/m 14,8 C 22,4 C 15,3 km/h (3 Bft) 99,78 %
22.08.2016 18:00 22,8 C 22,8 C 23,0 C 58 % 0 cb 1028,6 hPa 0,0 l/m 5,9 km/h (2 Bft) W 0,67 h 0,279 mm 209 W/m 14,0 C 22,8 C 14,5 km/h (3 Bft) 100,00 %
22.08.2016 19:00 21,6 C 21,6 C 21,9 C 64 % 0 cb 1028,7 hPa 0,0 l/m 2,4 km/h (1 Bft) S-SW 0,00 h 0,127 mm 105 W/m 14,5 C 21,6 C 7,8 km/h (2 Bft) 100,00 %
22.08.2016 20:00 19,4 C 19,4 C 19,9 C 75 % 0 cb 1028,8 hPa 0,0 l/m 0,0 km/h (0 Bft) N 0,00 h 0,051 mm 10 W/m 14,8 C 19,4 C 0,5 km/h (0 Bft) 100,00 %
22.08.2016 21:00 16,9 C 16,9 C 17,1 C 83 % 0 cb 1029,0 hPa 0,0 l/m 0,0 km/h (0 Bft) N 0,00 h 0,000 mm 0 W/m 14,0 C 16,9 C 0,0 km/h (0 Bft) 99,93 %
22.08.2016 22:00 16,0 C 16,0 C 16,1 C 86 % 0 cb 1029,1 hPa 0,0 l/m 0,0 km/h (0 Bft) N 0,00 h 0,025 mm 0 W/m 13,7 C 16,0 C 0,0 km/h (0 Bft) 100,00 %
22.08.2016 23:00 15,3 C 15,3 C 15,4 C 88 % 0 cb 1029,1 hPa 0,0 l/m 0,0 km/h (0 Bft) N 0,00 h 0,000 mm 0 W/m 13,3 C 15,3 C 0,3 km/h (0 Bft) 99,78 %
23.08.2016 00:00 14,7 C 14,7 C 14,8 C 89 % 0 cb 1029,2 hPa 0,0 l/m 0,3 km/h (0 Bft) N-NO 0,00 h 0,000 mm 0 W/m 13,0 C 14,7 C 1,6 km/h (1 Bft) 99,71 %
23.08.2016 01:00 13,9 C 13,9 C 14,1 C 91 % 0 cb 1029,1 hPa 0,0 l/m 0,0 km/h (0 Bft) N 0,00 h 0,000 mm 0 W/m 12,4 C 13,9 C 0,8 km/h (0 Bft) 99,85 %
23.08.2016 02:00 12,8 C 12,8 C 13,0 C 93 % 0 cb 1028,9 hPa 0,0 l/m 0,0 km/h (0 Bft) N 0,00 h 0,000 mm 0 W/m 11,7 C 12,8 C 0,0 km/h (0 Bft) 99,93 %
23.08.2016 03:00 12,3 C 12,3 C 12,4 C 95 % 0 cb 1029,0 hPa 0,0 l/m 0,0 km/h (0 Bft) N 0,00 h 0,000 mm 0 W/m 11,5 C 12,3 C 0,0 km/h (0 Bft) 99,93 %
23.08.2016 04:00 12,3 C 12,2 C 12,3 C 95 % 0 cb 1029,0 hPa 0,0 l/m 0,0 km/h (0 Bft) N 0,00 h 0,000 mm 0 W/m 11,4 C 12,3 C 1,9 km/h (1 Bft) 99,93 %
23.08.2016 05:00 11,6 C 11,6 C 11,7 C 95 % 0 cb 1028,9 hPa 0,0 l/m 0,0 km/h (0 Bft) N 0,00 h 0,000 mm 0 W/m 10,8 C 11,6 C 0,3 km/h (0 Bft) 99,85 %
23.08.2016 06:00 11,3 C 11,3 C 11,4 C 96 % 0 cb 1028,9 hPa 0,0 l/m 0,0 km/h (0 Bft) N 0,00 h 0,000 mm 7 W/m 10,7 C 11,3 C 0,0 km/h (0 Bft) 99,71 %
23.08.2016 07:00 11,5 C 11,3 C 11,6 C 96 % 0 cb 1029,1 hPa 0,0 l/m 0,3 km/h (0 Bft) N-NO 0,00 h 0,000 mm 29 W/m 11,0 C 11,5 C 1,1 km/h (0 Bft) 99,78 %
23.08.2016 08:00 14,3 C 13,7 C 14,3 C 95 % 0 cb 1029,3 hPa 0,0 l/m 0,3 km/h (0 Bft) N-NO 0,83 h 0,025 mm 220 W/m 13,6 C 14,3 C 1,1 km/h (0 Bft) 99,93 %
23.08.2016 09:00 19,6 C 18,8 C 19,6 C 77 % 0 cb 1029,2 hPa 0,0 l/m 1,1 km/h (0 Bft) N-NO 1,00 h 0,102 mm 392 W/m 15,4 C 19,6 C 4,5 km/h (1 Bft) 100,00 %
23.08.2016 10:00 22,6 C 22,4 C 22,6 C 66 % 0 cb 1029,1 hPa 0,0 l/m 2,9 km/h (1 Bft) O 1,00 h 0,229 mm 540 W/m 15,8 C 22,6 C 7,8 km/h (2 Bft) 100,00 %
23.08.2016 11:00 23,7 C 23,6 C 23,8 C 61 % 0 cb 1028,7 hPa 0,0 l/m 4,3 km/h (1 Bft) O 1,00 h 0,330 mm 659 W/m 15,7 C 23,7 C 13,2 km/h (3 Bft) 99,93 %
23.08.2016 12:00 24,2 C 24,0 C 24,2 C 58 % 0 cb 1028,2 hPa 0,0 l/m 4,3 km/h (1 Bft) O-NO 1,00 h 0,432 mm 730 W/m 15,5 C 24,2 C 12,4 km/h (3 Bft) 100,00 %
23.08.2016 13:00 25,6 C 25,4 C 25,6 C 51 % 0 cb 1027,6 hPa 0,0 l/m 4,3 km/h (1 Bft) O-SO 1,00 h 0,483 mm 759 W/m 14,7 C 25,6 C 13,4 km/h (3 Bft) 99,93 %
23.08.2016 14:00 26,6 C 26,5 C 26,7 C 51 % 0 cb 1027,1 hPa 0,0 l/m 3,7 km/h (1 Bft) O-NO 1,00 h 0,508 mm 740 W/m 15,5 C 26,6 C 12,1 km/h (2 Bft) 100,00 %
23.08.2016 15:00 27,8 C 27,5 C 27,8 C 49 % 0 cb 1026,5 hPa 0,0 l/m 3,7 km/h (1 Bft) SO 1,00 h 0,508 mm 681 W/m 15,9 C 27,8 C 12,4 km/h (3 Bft) 99,64 %
23.08.2016 16:00 28,5 C 28,5 C 28,6 C 47 % 0 cb 1025,9 hPa 0,0 l/m 4,3 km/h (1 Bft) O 1,00 h 0,457 mm 582 W/m 15,9 C 28,5 C 11,8 km/h (2 Bft) 99,93 %
23.08.2016 17:00 29,0 C 28,9 C 29,1 C 44 % 0 cb 1025,6 hPa 0,0 l/m 3,2 km/h (1 Bft) O-SO 1,00 h 0,406 mm 448 W/m 15,6 C 29,0 C 9,9 km/h (2 Bft) 100,00 %
23.08.2016 18:00 28,9 C 28,9 C 29,1 C 45 % 0 cb 1025,2 hPa 0,0 l/m 2,9 km/h (1 Bft) O 0,67 h 0,305 mm 202 W/m 15,6 C 28,9 C 8,3 km/h (2 Bft) 100,00 %
23.08.2016 19:00 26,7 C 26,7 C 27,2 C 50 % 0 cb 1024,8 hPa 0,0 l/m 2,1 km/h (1 Bft) O-NO 0,00 h 0,127 mm 97 W/m 15,3 C 26,7 C 6,7 km/h (2 Bft) 100,00 %
23.08.2016 20:00 23,5 C 23,5 C 24,0 C 56 % 0 cb 1024,9 hPa 0,0 l/m 1,1 km/h (0 Bft) N-NO 0,00 h 0,076 mm 9 W/m 14,3 C 23,5 C 4,0 km/h (1 Bft) 99,85 %
23.08.2016 21:00 21,0 C 21,0 C 21,3 C 65 % 0 cb 1025,3 hPa 0,0 l/m 0,3 km/h (0 Bft) NO 0,00 h 0,025 mm 0 W/m 14,2 C 21,0 C 3,2 km/h (1 Bft) 100,00 %
23.08.2016 22:00 19,9 C 19,9 C 20,0 C 70 % 0 cb 1025,3 hPa 0,0 l/m 2,1 km/h (1 Bft) N-NO 0,00 h 0,025 mm 0 W/m 14,2 C 19,9 C 5,6 km/h (1 Bft) 100,00 %
23.08.2016 23:00 19,7 C 19,7 C 19,8 C 70 % 0 cb 1025,0 hPa 0,0 l/m 5,6 km/h (1 Bft) N-NO 0,00 h 0,025 mm 0 W/m 14,0 C 19,7 C 11,0 km/h (2 Bft) 100,00 %
24.08.2016 00:00 18,9 C 18,9 C 19,0 C 71 % 0 cb 1024,8 hPa 0,0 l/m 5,9 km/h (2 Bft) N-NO 0,00 h 0,051 mm 0 W/m 13,5 C 18,9 C 11,6 km/h (2 Bft) 99,85 %
24.08.2016 01:00 18,7 C 18,7 C 18,7 C 70 % 0 cb 1024,5 hPa 0,0 l/m 5,3 km/h (1 Bft) N 0,00 h 0,051 mm 0 W/m 13,1 C 18,7 C 11,8 km/h (2 Bft) 99,64 %
24.08.2016 02:00 18,4 C 18,4 C 18,4 C 69 % 0 cb 1024,2 hPa 0,0 l/m 6,7 km/h (2 Bft) N 0,00 h 0,051 mm 0 W/m 12,5 C 18,4 C 12,6 km/h (3 Bft) 100,00 %
24.08.2016 03:00 18,1 C 18,1 C 18,2 C 68 % 0 cb 1023,8 hPa 0,0 l/m 6,1 km/h (2 Bft) N 0,00 h 0,051 mm 0 W/m 12,1 C 18,1 C 13,2 km/h (3 Bft) 99,93 %
24.08.2016 04:00 17,9 C 17,8 C 18,0 C 68 % 0 cb 1023,6 hPa 0,0 l/m 8,3 km/h (2 Bft) N 0,00 h 0,051 mm 0 W/m 11,9 C 17,9 C 16,6 km/h (3 Bft) 100,00 %
24.08.2016 05:00 17,6 C 17,6 C 17,6 C 71 % 0 cb 1023,3 hPa 0,0 l/m 8,0 km/h (2 Bft) N-NO 0,00 h 0,051 mm 0 W/m 12,1 C 17,6 C 15,6 km/h (3 Bft) 99,93 %
24.08.2016 06:00 17,1 C 17,1 C 17,2 C 73 % 0 cb 1023,4 hPa 0,0 l/m 8,9 km/h (2 Bft) N-NO 0,00 h 0,051 mm 6 W/m 12,1 C 17,1 C 16,4 km/h (3 Bft) 100,00 %
24.08.2016 07:00 17,2 C 17,1 C 17,2 C 74 % 0 cb 1023,6 hPa 0,0 l/m 9,4 km/h (2 Bft) N-NO 0,00 h 0,025 mm 26 W/m 12,5 C 17,2 C 17,2 km/h (3 Bft) 99,20 %
24.08.2016 08:00 18,8 C 18,5 C 18,8 C 72 % 0 cb 1023,8 hPa 0,0 l/m 8,6 km/h (2 Bft) N-NO 0,83 h 0,051 mm 223 W/m 13,6 C 18,8 C 16,4 km/h (3 Bft) 100,00 %
24.08.2016 09:00 21,5 C 21,0 C 21,5 C 68 % 0 cb 1023,6 hPa 0,0 l/m 5,6 km/h (1 Bft) N-NO 1,00 h 0,152 mm 392 W/m 15,4 C 21,5 C 13,2 km/h (3 Bft) 100,00 %
24.08.2016 10:00 24,5 C 24,1 C 24,5 C 58 % 0 cb 1023,4 hPa 0,0 l/m 6,1 km/h (2 Bft) O-NO 1,00 h 0,254 mm 542 W/m 15,7 C 24,5 C 15,8 km/h (3 Bft) 100,00 %
24.08.2016 11:00 25,7 C 25,6 C 25,7 C 56 % 0 cb 1023,0 hPa 0,0 l/m 5,9 km/h (2 Bft) O-NO 1,00 h 0,381 mm 661 W/m 16,1 C 25,7 C 16,9 km/h (3 Bft) 99,93 %
24.08.2016 12:00 26,8 C 26,6 C 26,8 C 54 % 0 cb 1022,7 hPa 0,0 l/m 6,1 km/h (2 Bft) O-NO 1,00 h 0,457 mm 732 W/m 16,7 C 26,8 C 18,0 km/h (3 Bft) 100,00 %
24.08.2016 13:00 28,3 C 28,0 C 28,3 C 47 % 0 cb 1022,1 hPa 0,0 l/m 6,1 km/h (2 Bft) O-NO 1,00 h 0,508 mm 761 W/m 15,9 C 28,3 C 16,9 km/h (3 Bft) 100,00 %
24.08.2016 14:00 29,5 C 29,3 C 29,6 C 42 % 0 cb 1021,8 hPa 0,0 l/m 5,9 km/h (2 Bft) O 1,00 h 0,559 mm 747 W/m 15,2 C 29,5 C 16,1 km/h (3 Bft) 100,00 %
24.08.2016 15:00 30,5 C 30,4 C 30,6 C 40 % 0 cb 1021,4 hPa 0,0 l/m 5,9 km/h (2 Bft) O-NO 1,00 h 0,559 mm 686 W/m 15,2 C 30,5 C 14,8 km/h (3 Bft) 99,71 %
24.08.2016 16:00 30,9 C 30,8 C 31,0 C 39 % 0 cb 1021,0 hPa 0,0 l/m 5,9 km/h (2 Bft) O-NO 1,00 h 0,508 mm 581 W/m 15,5 C 30,9 C 15,3 km/h (3 Bft) 100,00 %
24.08.2016 17:00 30,8 C 30,8 C 30,9 C 39 % 0 cb 1020,7 hPa 0,0 l/m 5,9 km/h (2 Bft) O-NO 1,00 h 0,457 mm 447 W/m 15,1 C 30,8 C 15,8 km/h (3 Bft) 99,93 %
24.08.2016 18:00 30,2 C 30,2 C 30,4 C 41 % 0 cb 1020,4 hPa 0,0 l/m 5,6 km/h (1 Bft) O-NO 0,67 h 0,356 mm 201 W/m 15,5 C 30,2 C 15,0 km/h (3 Bft) 100,00 %
24.08.2016 19:00 28,4 C 28,4 C 28,7 C 46 % 0 cb 1020,0 hPa 0,0 l/m 3,5 km/h (1 Bft) O-NO 0,00 h 0,152 mm 80 W/m 15,7 C 28,4 C 10,8 km/h (2 Bft) 100,00 %
24.08.2016 20:00 25,9 C 25,9 C 26,3 C 55 % 0 cb 1020,0 hPa 0,0 l/m 1,6 km/h (1 Bft) NO 0,00 h 0,076 mm 10 W/m 16,0 C 25,9 C 7,0 km/h (2 Bft) 99,85 %
24.08.2016 21:00 23,9 C 23,9 C 24,2 C 60 % 0 cb 1020,1 hPa 0,0 l/m 1,6 km/h (1 Bft) N-NO 0,00 h 0,025 mm 0 W/m 15,7 C 23,9 C 5,3 km/h (1 Bft) 100,00 %
24.08.2016 22:00 23,1 C 23,1 C 23,2 C 62 % 0 cb 1020,1 hPa 0,0 l/m 2,4 km/h (1 Bft) N-NO 0,00 h 0,051 mm 0 W/m 15,4 C 23,1 C 6,9 km/h (2 Bft) 99,93 %
24.08.2016 23:00 22,6 C 22,6 C 22,8 C 63 % 0 cb 1019,9 hPa 0,0 l/m 4,5 km/h (1 Bft) N-NO 0,00 h 0,051 mm 0 W/m 15,2 C 22,6 C 8,3 km/h (2 Bft) 99,71 %
25.08.2016 00:00 22,2 C 22,2 C 22,3 C 63 % 0 cb 1019,6 hPa 0,0 l/m 2,1 km/h (1 Bft) N-NO 0,00 h 0,051 mm 0 W/m 14,7 C 22,2 C 6,9 km/h (2 Bft) 100,00 %
25.08.2016 01:00 21,4 C 21,4 C 21,6 C 66 % 0 cb 1019,5 hPa 0,0 l/m 6,1 km/h (2 Bft) N-NO 0,00 h 0,051 mm 0 W/m 14,8 C 21,4 C 11,8 km/h (2 Bft) 100,00 %
25.08.2016 02:00 20,2 C 20,2 C 20,4 C 70 % 0 cb 1019,2 hPa 0,0 l/m 6,7 km/h (2 Bft) N-NO 0,00 h 0,051 mm 0 W/m 14,6 C 20,2 C 12,9 km/h (3 Bft) 100,00 %
25.08.2016 03:00 19,5 C 19,5 C 19,6 C 72 % 0 cb 1018,9 hPa 0,0 l/m 5,1 km/h (1 Bft) N-NO 0,00 h 0,051 mm 0 W/m 14,4 C 19,5 C 10,8 km/h (2 Bft) 99,85 %
25.08.2016 04:00 18,9 C 18,8 C 19,0 C 75 % 0 cb 1018,7 hPa 0,0 l/m 5,3 km/h (1 Bft) N-NO 0,00 h 0,025 mm 0 W/m 14,4 C 18,9 C 11,3 km/h (2 Bft) 98,76 %
25.08.2016 05:00 18,4 C 18,4 C 18,6 C 77 % 0 cb 1018,6 hPa 0,0 l/m 6,1 km/h (2 Bft) N-NO 0,00 h 0,025 mm 0 W/m 14,2 C 18,4 C 12,6 km/h (3 Bft) 100,00 %
25.08.2016 06:00 17,7 C 17,6 C 17,8 C 79 % 0 cb 1018,6 hPa 0,0 l/m 6,1 km/h (2 Bft) N-NO 0,00 h 0,025 mm 6 W/m 14,0 C 17,7 C 12,4 km/h (3 Bft) 100,00 %
25.08.2016 07:00 17,8 C 17,6 C 17,8 C 78 % 0 cb 1018,6 hPa 0,0 l/m 6,4 km/h (2 Bft) N-NO 0,00 h 0,025 mm 21 W/m 13,9 C 17,8 C 13,2 km/h (3 Bft) 100,00 %
25.08.2016 08:00 19,8 C 19,4 C 19,8 C 73 % 0 cb 1018,5 hPa 0,0 l/m 7,2 km/h (2 Bft) N-NO 0,83 h 0,051 mm 222 W/m 14,7 C 19,8 C 15,6 km/h (3 Bft) 99,71 %
25.08.2016 09:00 22,8 C 22,2 C 22,8 C 65 % 0 cb 1018,5 hPa 0,0 l/m 4,0 km/h (1 Bft) N-NO 1,00 h 0,152 mm 391 W/m 15,7 C 22,8 C 11,3 km/h (2 Bft) 99,78 %
25.08.2016 10:00 24,9 C 24,7 C 24,9 C 57 % 0 cb 1018,5 hPa 0,0 l/m 4,0 km/h (1 Bft) O 1,00 h 0,254 mm 543 W/m 15,7 C 24,9 C 12,9 km/h (3 Bft) 99,78 %
25.08.2016 11:00 26,1 C 25,9 C 26,1 C 55 % 0 cb 1018,3 hPa 0,0 l/m 3,7 km/h (1 Bft) O-NO 1,00 h 0,381 mm 657 W/m 16,3 C 26,1 C 11,8 km/h (2 Bft) 100,00 %
25.08.2016 12:00 27,2 C 27,0 C 27,2 C 51 % 0 cb 1017,7 hPa 0,0 l/m 3,5 km/h (1 Bft) O-NO 1,00 h 0,432 mm 733 W/m 16,1 C 27,2 C 11,3 km/h (2 Bft) 100,00 %
25.08.2016 13:00 28,9 C 28,6 C 28,9 C 46 % 0 cb 1017,3 hPa 0,0 l/m 3,7 km/h (1 Bft) NO 1,00 h 0,508 mm 758 W/m 16,1 C 28,9 C 11,6 km/h (2 Bft) 99,78 %
25.08.2016 14:00 30,4 C 30,2 C 30,4 C 42 % 0 cb 1017,1 hPa 0,0 l/m 4,3 km/h (1 Bft) S 1,00 h 0,533 mm 742 W/m 15,9 C 30,4 C 13,7 km/h (3 Bft) 99,93 %
25.08.2016 15:00 31,6 C 31,4 C 31,6 C 41 % 0 cb 1016,6 hPa 0,0 l/m 3,5 km/h (1 Bft) O 1,00 h 0,533 mm 681 W/m 16,5 C 31,6 C 11,8 km/h (2 Bft) 100,00 %
25.08.2016 16:00 32,4 C 32,3 C 32,4 C 36 % 0 cb 1016,3 hPa 0,0 l/m 3,5 km/h (1 Bft) O 1,00 h 0,508 mm 580 W/m 15,1 C 32,4 C 11,3 km/h (2 Bft) 100,00 %
25.08.2016 17:00 33,0 C 32,8 C 33,0 C 35 % 0 cb 1015,9 hPa 0,0 l/m 2,9 km/h (1 Bft) O 1,00 h 0,432 mm 441 W/m 15,3 C 33,0 C 8,6 km/h (2 Bft) 100,00 %
25.08.2016 18:00 33,1 C 33,0 C 33,2 C 36 % 0 cb 1015,5 hPa 0,0 l/m 2,4 km/h (1 Bft) S-SO 0,67 h 0,330 mm 198 W/m 16,0 C 33,1 C 6,7 km/h (2 Bft) 100,00 %
25.08.2016 19:00 31,0 C 31,0 C 31,5 C 43 % 0 cb 1015,3 hPa 0,0 l/m 1,1 km/h (0 Bft) S-SO 0,00 h 0,152 mm 73 W/m 16,8 C 31,0 C 4,8 km/h (1 Bft) 100,00 %
25.08.2016 20:00 26,8 C 26,8 C 27,5 C 55 % 0 cb 1015,5 hPa 0,0 l/m 0,0 km/h (0 Bft) N 0,00 h 0,051 mm 9 W/m 16,9 C 26,8 C 0,5 km/h (0 Bft) 100,00 %
25.08.2016 21:00 23,6 C 23,6 C 23,9 C 65 % 0 cb 1015,8 hPa 0,0 l/m 0,0 km/h (0 Bft) N 0,00 h 0,025 mm 0 W/m 16,5 C 23,6 C 0,0 km/h (0 Bft) 99,93 %
25.08.2016 22:00 22,3 C 22,3 C 22,4 C 68 % 0 cb 1016,1 hPa 0,0 l/m 0,5 km/h (0 Bft) NO 0,00 h 0,025 mm 0 W/m 16,0 C 22,3 C 1,9 km/h (1 Bft) 99,78 %
25.08.2016 23:00 21,4 C 21,4 C 21,6 C 69 % 0 cb 1016,0 hPa 0,0 l/m 0,5 km/h (0 Bft) NO 0,00 h 0,025 mm 0 W/m 15,5 C 21,4 C 3,2 km/h (1 Bft) 100,00 %
26.08.2016 00:00 20,0 C 20,0 C 20,2 C 75 % 0 cb 1015,9 hPa 0,0 l/m 0,0 km/h (0 Bft) N 0,00 h 0,025 mm 0 W/m 15,4 C 20,0 C 1,6 km/h (1 Bft) 100,00 %
26.08.2016 01:00 18,6 C 18,6 C 18,8 C 80 % 0 cb 1015,9 hPa 0,0 l/m 0,0 km/h (0 Bft) N 0,00 h 0,025 mm 0 W/m 15,1 C 18,6 C 0,0 km/h (0 Bft) 100,00 %
26.08.2016 02:00 17,6 C 17,5 C 17,7 C 84 % 0 cb 1015,7 hPa 0,0 l/m 0,0 km/h (0 Bft) N 0,00 h 0,025 mm 0 W/m 14,9 C 17,6 C 0,0 km/h (0 Bft) 100,00 %
26.08.2016 03:00 17,2 C 17,2 C 17,3 C 85 % 0 cb 1016,0 hPa 0,0 l/m 0,0 km/h (0 Bft) N 0,00 h 0,025 mm 0 W/m 14,7 C 17,2 C 0,0 km/h (0 Bft) 100,00 %
26.08.2016 04:00 16,6 C 16,6 C 16,7 C 87 % 0 cb 1016,2 hPa 0,0 l/m 0,0 km/h (0 Bft) N 0,00 h 0,000 mm 0 W/m 14,4 C 16,6 C 0,0 km/h (0 Bft) 100,00 %
26.08.2016 05:00 16,0 C 16,0 C 16,1 C 89 % 0 cb 1016,3 hPa 0,0 l/m 0,0 km/h (0 Bft) N 0,00 h 0,000 mm 0 W/m 14,2 C 16,0 C 0,0 km/h (0 Bft) 99,93 %
26.08.2016 06:00 15,5 C 15,5 C 15,6 C 91 % 0 cb 1016,5 hPa 0,0 l/m 0,0 km/h (0 Bft) N 0,00 h 0,000 mm 7 W/m 14,0 C 15,5 C 0,0 km/h (0 Bft) 100,00 %
26.08.2016 07:00 15,6 C 15,6 C 15,7 C 91 % 0 cb 1016,8 hPa 0,0 l/m 0,0 km/h (0 Bft) N 0,00 h 0,000 mm 20 W/m 14,1 C 15,6 C 0,0 km/h (0 Bft) 99,19 %
26.08.2016 08:00 18,5 C 17,5 C 18,5 C 87 % 0 cb 1017,1 hPa 0,0 l/m 0,0 km/h (0 Bft) N 0,67 h 0,025 mm 205 W/m 16,2 C 18,5 C 0,0 km/h (0 Bft) 100,00 %
26.08.2016 09:00 23,9 C 23,3 C 23,9 C 70 % 0 cb 1017,1 hPa 0,0 l/m 0,0 km/h (0 Bft) NO 1,00 h 0,102 mm 376 W/m 18,2 C 23,9 C 0,3 km/h (0 Bft) 99,78 %
26.08.2016 10:00 26,8 C 26,3 C 26,8 C 62 % 0 cb 1017,3 hPa 0,0 l/m 1,6 km/h (1 Bft) S-SW 1,00 h 0,229 mm 526 W/m 19,0 C 26,8 C 5,6 km/h (1 Bft) 100,00 %
26.08.2016 11:00 28,7 C 28,4 C 28,8 C 58 % 0 cb 1017,4 hPa 0,0 l/m 2,4 km/h (1 Bft) S 1,00 h 0,356 mm 640 W/m 19,6 C 28,7 C 6,7 km/h (2 Bft) 100,00 %
26.08.2016 12:00 30,6 C 30,4 C 30,6 C 54 % 0 cb 1017,2 hPa 0,0 l/m 3,2 km/h (1 Bft) S 1,00 h 0,432 mm 708 W/m 20,3 C 30,6 C 8,3 km/h (2 Bft) 100,00 %
26.08.2016 13:00 32,4 C 32,1 C 32,4 C 47 % 0 cb 1017,1 hPa 0,0 l/m 3,5 km/h (1 Bft) S 1,00 h 0,508 mm 735 W/m 19,4 C 32,4 C 10,2 km/h (2 Bft) 99,78 %
26.08.2016 14:00 33,9 C 33,7 C 33,9 C 41 % 0 cb 1016,9 hPa 0,0 l/m 5,3 km/h (1 Bft) S-SW 1,00 h 0,533 mm 719 W/m 18,7 C 33,9 C 14,8 km/h (3 Bft) 99,71 %
26.08.2016 15:00 34,6 C 34,5 C 34,6 C 39 % 0 cb 1016,8 hPa 0,0 l/m 5,1 km/h (1 Bft) S-SW 1,00 h 0,559 mm 654 W/m 18,4 C 34,6 C 15,3 km/h (3 Bft) 100,00 %
26.08.2016 16:00 35,0 C 35,0 C 35,1 C 36 % 0 cb 1016,5 hPa 0,0 l/m 4,5 km/h (1 Bft) S 1,00 h 0,508 mm 550 W/m 17,5 C 35,0 C 12,9 km/h (3 Bft) 100,00 %
26.08.2016 17:00 35,3 C 35,2 C 35,3 C 34 % 0 cb 1016,4 hPa 0,0 l/m 4,0 km/h (1 Bft) W 1,00 h 0,432 mm 419 W/m 16,7 C 35,3 C 11,8 km/h (2 Bft) 99,85 %
26.08.2016 18:00 35,2 C 35,2 C 35,3 C 32 % 0 cb 1016,3 hPa 0,0 l/m 3,2 km/h (1 Bft) W 0,67 h 0,356 mm 190 W/m 16,1 C 35,2 C 9,4 km/h (2 Bft) 100,00 %
26.08.2016 19:00 32,8 C 32,8 C 33,4 C 41 % 0 cb 1016,4 hPa 0,0 l/m 1,1 km/h (0 Bft) W 0,00 h 0,152 mm 66 W/m 17,6 C 32,8 C 3,2 km/h (1 Bft) 99,93 %
26.08.2016 20:00 29,3 C 29,3 C 29,8 C 46 % 0 cb 1016,8 hPa 0,0 l/m 1,6 km/h (1 Bft) N-NW 0,00 h 0,051 mm 11 W/m 16,4 C 29,3 C 4,3 km/h (1 Bft) 100,00 %
26.08.2016 21:00 26,8 C 26,8 C 27,2 C 52 % 0 cb 1017,1 hPa 0,0 l/m 1,1 km/h (0 Bft) N 0,00 h 0,025 mm 0 W/m 16,1 C 26,8 C 4,0 km/h (1 Bft) 100,00 %
26.08.2016 22:00 24,3 C 24,3 C 24,7 C 64 % 0 cb 1017,4 hPa 0,0 l/m 0,0 km/h (0 Bft) N 0,00 h 0,051 mm 0 W/m 17,0 C 24,3 C 0,0 km/h (0 Bft) 100,00 %
26.08.2016 23:00 22,4 C 22,4 C 22,7 C 73 % 0 cb 1017,7 hPa 0,0 l/m 0,0 km/h (0 Bft) N 0,00 h 0,025 mm 0 W/m 17,2 C 22,4 C 0,0 km/h (0 Bft) 100,00 %
27.08.2016 00:00 21,6 C 21,6 C 21,7 C 76 % 0 cb 1017,7 hPa 0,0 l/m 0,3 km/h (0 Bft) N 0,00 h 0,025 mm 0 W/m 17,2 C 21,6 C 1,6 km/h (1 Bft) 99,93 %
27.08.2016 01:00 20,8 C 20,8 C 20,9 C 80 % 0 cb 1017,7 hPa 0,0 l/m 0,0 km/h (0 Bft) N 0,00 h 0,025 mm 0 W/m 17,1 C 20,8 C 1,1 km/h (0 Bft) 100,00 %
27.08.2016 02:00 20,0 C 19,9 C 20,1 C 84 % 0 cb 1017,7 hPa 0,0 l/m 0,5 km/h (0 Bft) N-NO 0,00 h 0,025 mm 0 W/m 17,2 C 20,0 C 1,9 km/h (1 Bft) 100,00 %
27.08.2016 03:00 20,0 C 20,0 C 20,2 C 84 % 0 cb 1017,7 hPa 0,0 l/m 0,0 km/h (0 Bft) N 0,00 h 0,025 mm 0 W/m 17,3 C 20,0 C 0,0 km/h (0 Bft) 100,00 %
27.08.2016 04:00 18,9 C 18,9 C 19,1 C 88 % 0 cb 1017,6 hPa 0,0 l/m 0,0 km/h (0 Bft) N 0,00 h 0,025 mm 0 W/m 16,8 C 18,9 C 0,0 km/h (0 Bft) 100,00 %
27.08.2016 05:00 18,7 C 18,7 C 18,8 C 90 % 0 cb 1017,4 hPa 0,0 l/m 0,0 km/h (0 Bft) N 0,00 h 0,000 mm 0 W/m 17,0 C 18,7 C 0,5 km/h (0 Bft) 99,93 %
27.08.2016 06:00 18,1 C 18,1 C 18,2 C 91 % 0 cb 1017,4 hPa 0,0 l/m 0,0 km/h (0 Bft) N 0,00 h 0,000 mm 7 W/m 16,7 C 18,1 C 0,0 km/h (0 Bft) 100,00 %
27.08.2016 07:00 17,9 C 17,9 C 18,0 C 93 % 0 cb 1017,6 hPa 0,0 l/m 0,0 km/h (0 Bft) N 0,00 h 0,000 mm 21 W/m 16,7 C 17,9 C 0,0 km/h (0 Bft) 100,00 %
27.08.2016 08:00 20,4 C 19,5 C 20,4 C 89 % 0 cb 1017,8 hPa 0,0 l/m 0,0 km/h (0 Bft) NO 0,67 h 0,025 mm 198 W/m 18,4 C 20,4 C 1,9 km/h (1 Bft) 99,93 %
27.08.2016 09:00 26,2 C 25,5 C 26,2 C 70 % 0 cb 1018,0 hPa 0,0 l/m 2,1 km/h (1 Bft) N-NO 1,00 h 0,127 mm 360 W/m 20,2 C 26,2 C 6,1 km/h (2 Bft) 100,00 %
27.08.2016 10:00 29,4 C 29,0 C 29,4 C 59 % 0 cb 1018,2 hPa 0,0 l/m 2,1 km/h (1 Bft) O-NO 1,00 h 0,254 mm 503 W/m 20,6 C 29,4 C 6,7 km/h (2 Bft) 100,00 %
27.08.2016 11:00 31,2 C 30,9 C 31,2 C 52 % 0 cb 1018,0 hPa 0,0 l/m 2,4 km/h (1 Bft) O-SO 1,00 h 0,356 mm 623 W/m 20,2 C 31,2 C 7,0 km/h (2 Bft) 100,00 %
27.08.2016 12:00 32,4 C 32,3 C 32,4 C 47 % 0 cb 1017,6 hPa 0,0 l/m 3,2 km/h (1 Bft) O-SO 1,00 h 0,457 mm 695 W/m 19,6 C 32,4 C 9,1 km/h (2 Bft) 99,93 %
27.08.2016 13:00 33,1 C 32,9 C 33,1 C 44 % 0 cb 1017,2 hPa 0,0 l/m 2,7 km/h (1 Bft) O-NO 1,00 h 0,508 mm 722 W/m 19,0 C 33,1 C 9,9 km/h (2 Bft) 99,85 %
27.08.2016 14:00 33,9 C 33,7 C 33,9 C 39 % 0 cb 1016,8 hPa 0,0 l/m 3,2 km/h (1 Bft) O 1,00 h 0,533 mm 714 W/m 17,8 C 33,9 C 11,6 km/h (2 Bft) 100,00 %
27.08.2016 15:00 34,7 C 34,6 C 34,8 C 31 % 0 cb 1016,3 hPa 0,0 l/m 3,5 km/h (1 Bft) O-SO 1,00 h 0,533 mm 655 W/m 15,2 C 34,7 C 13,4 km/h (3 Bft) 100,00 %
27.08.2016 16:00 34,9 C 34,9 C 35,0 C 31 % 0 cb 1015,8 hPa 0,0 l/m 2,4 km/h (1 Bft) O-NO 1,00 h 0,508 mm 547 W/m 15,0 C 34,9 C 7,8 km/h (2 Bft) 99,93 %
27.08.2016 17:00 35,3 C 35,2 C 35,3 C 29 % 0 cb 1015,4 hPa 0,0 l/m 3,2 km/h (1 Bft) S 1,00 h 0,406 mm 412 W/m 14,3 C 35,3 C 9,7 km/h (2 Bft) 100,00 %
27.08.2016 18:00 34,6 C 34,6 C 34,9 C 35 % 0 cb 1015,0 hPa 0,0 l/m 2,7 km/h (1 Bft) O 0,67 h 0,330 mm 184 W/m 16,7 C 34,6 C 10,2 km/h (2 Bft) 100,00 %
27.08.2016 19:00 31,9 C 31,9 C 32,4 C 43 % 0 cb 1014,9 hPa 0,0 l/m 0,5 km/h (0 Bft) O-SO 0,00 h 0,127 mm 49 W/m 17,6 C 31,9 C 2,9 km/h (1 Bft) 100,00 %
27.08.2016 20:00 28,0 C 28,0 C 28,6 C 52 % 0 cb 1015,3 hPa 0,0 l/m 0,0 km/h (0 Bft) N 0,00 h 0,051 mm 9 W/m 17,1 C 28,0 C 0,0 km/h (0 Bft) 100,00 %
27.08.2016 21:00 25,5 C 25,5 C 25,7 C 59 % 0 cb 1015,4 hPa 0,0 l/m 0,0 km/h (0 Bft) N 0,00 h 0,025 mm 0 W/m 16,8 C 25,5 C 0,0 km/h (0 Bft) 99,93 %
27.08.2016 22:00 24,6 C 24,6 C 24,8 C 62 % 0 cb 1015,4 hPa 0,0 l/m 0,0 km/h (0 Bft) N 0,00 h 0,051 mm 0 W/m 16,8 C 24,6 C 0,0 km/h (0 Bft) 100,00 %
27.08.2016 23:00 23,3 C 23,3 C 23,5 C 66 % 0 cb 1015,3 hPa 0,0 l/m 0,0 km/h (0 Bft) N 0,00 h 0,051 mm 0 W/m 16,6 C 23,3 C 0,0 km/h (0 Bft) 100,00 %
28.08.2016 00:00 22,5 C 22,5 C 22,8 C 68 % 0 cb 1015,3 hPa 0,0 l/m 0,0 km/h (0 Bft) N 0,00 h 0,025 mm 0 W/m 16,3 C 22,5 C 0,0 km/h (0 Bft) 100,00 %
28.08.2016 01:00 20,8 C 20,8 C 21,0 C 75 % 0 cb 1015,1 hPa 0,0 l/m 0,0 km/h (0 Bft) N 0,00 h 0,025 mm 0 W/m 16,2 C 20,8 C 1,3 km/h (1 Bft) 99,78 %
28.08.2016 02:00 19,5 C 19,5 C 19,6 C 81 % 0 cb 1015,0 hPa 0,0 l/m 0,0 km/h (0 Bft) N 0,00 h 0,025 mm 0 W/m 16,0 C 19,5 C 0,0 km/h (0 Bft) 100,00 %
28.08.2016 03:00 19,0 C 19,0 C 19,1 C 83 % 0 cb 1014,8 hPa 0,0 l/m 0,5 km/h (0 Bft) O 0,00 h 0,025 mm 0 W/m 16,0 C 19,0 C 1,3 km/h (1 Bft) 100,00 %
28.08.2016 04:00 18,4 C 18,4 C 18,5 C 85 % 0 cb 1014,7 hPa 0,0 l/m 0,0 km/h (0 Bft) N 0,00 h 0,025 mm 0 W/m 15,8 C 18,4 C 0,5 km/h (0 Bft) 100,00 %
28.08.2016 05:00 18,0 C 18,0 C 18,1 C 87 % 0 cb 1014,6 hPa 0,0 l/m 0,0 km/h (0 Bft) N 0,00 h 0,025 mm 0 W/m 15,7 C 18,0 C 0,0 km/h (0 Bft) 100,00 %
28.08.2016 06:00 17,7 C 17,7 C 17,8 C 88 % 0 cb 1014,7 hPa 0,0 l/m 0,0 km/h (0 Bft) N 0,00 h 0,000 mm 5 W/m 15,8 C 17,7 C 0,0 km/h (0 Bft) 100,00 %
28.08.2016 07:00 17,8 C 17,7 C 17,8 C 89 % 0 cb 1015,0 hPa 0,0 l/m 0,0 km/h (0 Bft) N 0,00 h 0,000 mm 25 W/m 16,0 C 17,8 C 0,0 km/h (0 Bft) 99,64 %
28.08.2016 08:00 20,4 C 19,7 C 20,4 C 84 % 0 cb 1015,2 hPa 0,0 l/m 0,0 km/h (0 Bft) N 0,67 h 0,025 mm 189 W/m 17,5 C 20,4 C 0,0 km/h (0 Bft) 100,00 %
28.08.2016 09:00 24,1 C 23,7 C 24,1 C 71 % 0 cb 1015,3 hPa 0,0 l/m 1,3 km/h (1 Bft) S 1,00 h 0,102 mm 352 W/m 18,4 C 24,1 C 4,5 km/h (1 Bft) 100,00 %
28.08.2016 10:00 26,1 C 25,8 C 26,1 C 64 % 0 cb 1015,4 hPa 0,0 l/m 3,5 km/h (1 Bft) S-SW 1,00 h 0,229 mm 505 W/m 18,7 C 26,1 C 9,1 km/h (2 Bft) 100,00 %
28.08.2016 11:00 27,8 C 27,6 C 27,8 C 56 % 0 cb 1015,3 hPa 0,0 l/m 5,1 km/h (1 Bft) S-SW 1,00 h 0,356 mm 620 W/m 18,3 C 27,8 C 14,2 km/h (3 Bft) 100,00 %
28.08.2016 12:00 29,0 C 28,8 C 29,0 C 52 % 0 cb 1015,0 hPa 0,0 l/m 5,1 km/h (1 Bft) S 1,00 h 0,432 mm 689 W/m 18,2 C 29,0 C 18,0 km/h (3 Bft) 100,00 %
28.08.2016 13:00 30,5 C 30,3 C 30,5 C 46 % 0 cb 1014,7 hPa 0,0 l/m 6,1 km/h (2 Bft) S-SW 1,00 h 0,508 mm 717 W/m 17,6 C 30,5 C 18,8 km/h (3 Bft) 100,00 %
28.08.2016 14:00 31,3 C 31,1 C 31,3 C 43 % 0 cb 1014,5 hPa 0,0 l/m 8,0 km/h (2 Bft) S 1,00 h 0,533 mm 712 W/m 17,0 C 31,3 C 23,0 km/h (4 Bft) 99,71 %
28.08.2016 15:00 29,8 C 29,5 C 30,3 C 48 % 0 cb 1014,4 hPa 0,0 l/m 9,1 km/h (2 Bft) W-SW 1,00 h 0,508 mm 337 W/m 17,4 C 29,8 C 24,1 km/h (4 Bft) 100,00 %
28.08.2016 16:00 28,9 C 28,9 C 29,4 C 50 % 0 cb 1014,8 hPa 0,0 l/m 10,8 km/h (2 Bft) W 1,00 h 0,356 mm 435 W/m 17,3 C 28,9 C 24,7 km/h (4 Bft) 100,00 %
28.08.2016 17:00 25,2 C 25,2 C 25,7 C 58 % 0 cb 1015,2 hPa 0,0 l/m 11,3 km/h (2 Bft) W 1,00 h 0,279 mm 164 W/m 16,3 C 25,2 C 25,7 km/h (4 Bft) 99,93 %
28.08.2016 18:00 24,1 C 24,0 C 24,2 C 51 % 0 cb 1015,6 hPa 0,0 l/m 10,5 km/h (2 Bft) W 0,33 h 0,178 mm 142 W/m 13,4 C 24,1 C 22,5 km/h (4 Bft) 100,00 %
28.08.2016 19:00 24,0 C 24,0 C 24,2 C 48 % 0 cb 1015,5 hPa 0,0 l/m 6,4 km/h (2 Bft) W 0,00 h 0,152 mm 55 W/m 12,4 C 24,0 C 16,4 km/h (3 Bft) 100,00 %
28.08.2016 20:00 22,2 C 22,2 C 22,5 C 59 % 0 cb 1015,8 hPa 0,0 l/m 2,4 km/h (1 Bft) W 0,00 h 0,076 mm 10 W/m 13,8 C 22,2 C 7,8 km/h (2 Bft) 99,78 %
28.08.2016 21:00 20,8 C 20,8 C 20,9 C 68 % 0 cb 1016,3 hPa 0,0 l/m 2,9 km/h (1 Bft) W-SW 0,00 h 0,025 mm 0 W/m 14,7 C 20,8 C 8,6 km/h (2 Bft) 100,00 %
28.08.2016 22:00 20,7 C 20,7 C 20,8 C 69 % 0 cb 1016,8 hPa 0,0 l/m 5,3 km/h (1 Bft) W-SW 0,00 h 0,051 mm 0 W/m 14,9 C 20,7 C 15,0 km/h (3 Bft) 99,93 %
28.08.2016 23:00 20,0 C 20,0 C 20,1 C 74 % 0 cb 1017,2 hPa 0,0 l/m 3,7 km/h (1 Bft) W-SW 0,00 h 0,051 mm 0 W/m 15,1 C 20,0 C 11,6 km/h (2 Bft) 100,00 %
Min-Datum _ 22.08.16 22.08.16 22.08.16 27.08.16 22.08.16 28.08.16 - 22.08.16 - - - - 22.08.16 22.08.16 22.08.16 25.08.16
_ Min-Zeit 06:50 06:50 07:00 17:20 00:00 15:00 - 00:00 - - - - 06:50 06:50 00:10 04:30
Minimum _ 9,3 C 9,3 C 9,3 C 27 % 0 cb 1014,2 hPa - 0,0 km/h (0 Bft) - - - - 8,7 C 9,3 C 0,0 km/h (0 Bft) 92,54 %
Max-Datum _ 26.08.16 26.08.16 26.08.16 22.08.16 22.08.16 22.08.16 22.08.16 28.08.16 - 22.08.16 24.08.16 28.08.16 27.08.16 26.08.16 28.08.16 22.08.16
_ Max-Zeit 17:40 17:40 17:40 07:30 00:00 12:50 10:30 17:20 - 10:50 14:00 15:00 10:20 17:30 16:00 00:00
Maximum _ 35,5 C 35,4 C 35,5 C 97 % 0 cb 1029,5 hPa 0,2 l/m 12,9 km/h
W (3 Bft)
- 0,17 h 0,559 mm 858 W/m 21,1 C 35,4 C 29,0 km/h
W-SW (5 Bft)
100,00 %
Durchschnitt _ 22,6 C 22,5 C 22,7 C 67 % 0 cb 1020,6 hPa #0,6 l/m 2,8 km/h (1 Bft) N-NO #68:40 h #28,336 mm 365 W/m 15,2 C 22,6 C 7,6 km/h (2 Bft) 99,92 %
Wetterstation Gdesweiler